Terminal Aerodrome Forecast
Issued by NWS Albany, NY

Home | Current Version | Previous Version | Text Only | Print | Product List | Glossary On
Versions: 1 2 3 4 5 6 7 8 9 10 11 12 13 14 15
000
FTUS41 KALY 211300 AAA
TAFALB
TAF AMD
KALB 211338Z 2114/2212 17010G20KT P6SM SCT010
      TEMPO 2114/2115 BKN010
     FM211500 18010G20KT P6SM SCT020 SCT070 SCT250
     FM212100 21007KT P6SM VCSH BKN040
     FM220000 29005KT P6SM SCT080=

USA.gov is the U.S. government's official web portal to all federal, state and local government web resources and services.